Terminal Aerodrome Forecast
Issued by NWS Mt. Holly, NJ

Current Version | Previous Version | Text Only | Print | Product List | Glossary On
Versions: 1 2 3 4 5 6 7 8 9 10 11 12 13 14 15 16 17 18
738
FTUS41 KPHI 291211 AAA
TAFACY
TAF AMD
KACY 291211Z 2912/3012 05006KT 5SM -SHRA BR OVC030
      TEMPO 2912/2914 1SM SHRA BR OVC005
     FM291500 02012G20KT P6SM BKN025
     FM291700 02010G18KT P6SM BKN045
     FM292200 VRB03KT P6SM SCT045
     FM300700 VRB03KT 5SM BR SCT100=

USA.gov is the U.S. government's official web portal to all federal, state and local government web resources and services.